KCWF

Chennault International Airport

Lake Charles, Louisiana, USA
METAR KCWF 190915Z AUTO 01006KT 10SM CLR 27/26 A2993 RMK AO2 T02710257
Observed Flight Rules
Sep-19 @ 09:15 UTC (27 minutes ago) Visual Flight Rules
Wind Visibility Clouds
10° at 6 knots 10 miles
  • Clear skies
Temperatures Readings
Current 27°C / 81°F
Dewpoint 26°C / 79°F
Humidity 94%
Altimeter 29.93" Hg
Pressure 1014 hPa
Elevation 4
METAR KCWF 190915Z AUTO 01006KT 10SM CLR 27/26 A2993 RMK AO2 T02710257
Observed Flight Rules
Sep-19 @ 09:15 UTC
(27 minutes ago)
VFR
Wind Visibility
10° at 6 knots 10 miles
Clouds
  • Clear skies
Temperature Dewpoint
27°C / 81°F 26°C / 79°F
Humidity Altimeter Pressure
94% 29.93" Hg 1014 hPa